KRYN

Ryan Field Airport

Tucson, Arizona, USA
METAR KRYN 260245Z 28007KT 10SM CLR 32/00 A2992 RMK LAST
Observed Flight Rules
May-26 @ 02:45 UTC (2 hours ago) Visual Flight Rules
Wind Visibility Clouds
280° at 7 knots 10 miles
  • Clear skies
Temperatures Readings
Current 32°C / 90°F
Dewpoint 0°C / 32°F
Humidity 13%
Altimeter 29.92" Hg
Pressure 1013 hPa
Elevation 737
METAR KRYN 260245Z 28007KT 10SM CLR 32/00 A2992 RMK LAST
Observed Flight Rules
May-26 @ 02:45 UTC
(2 hours ago)
VFR
Wind Visibility
280° at 7 knots 10 miles
Clouds
  • Clear skies
Temperature Dewpoint
32°C / 90°F 0°C / 32°F
Humidity Altimeter Pressure
13% 29.92" Hg 1013 hPa